Overview Statistics Trail Chart Weather Telemetry Raw packets
 

This is the latest recevied weather packets stored in our database for station/object KA1AL. If no packets are shown the sender has not sent any weather packets the latest 10 day(s).

<< 55 56 57 58 59 60 61 >>
Time Temp. Humidity Pressure Rain* Wind** Luminosity Snow
1777147345 12.22° C 52% 1014.9 hPa 0 mm - 415 W/m² -
1777147041 12.78° C 52% 1014.7 hPa 0 mm - 452 W/m² -
1777146738 12.78° C 52% 1014.6 hPa 0 mm - 459 W/m² -
1777146433 12.22° C 56% 1014.8 hPa 0 mm - 474 W/m² -
1777146131 12.22° C 56% 1014.6 hPa 0 mm - 481 W/m² -
1777145830 12.22° C 55% 1014.9 hPa 0 mm - 497 W/m² -
1777145527 12.22° C 54% 1014.9 hPa 0 mm - 516 W/m² -
1777145222 11.67° C 55% 1014.8 hPa 0 mm - 517 W/m² -
1777144918 12.22° C 55% 1015 hPa 0 mm - 530 W/m² -
1777144617 12.22° C 53% 1014.9 hPa 0 mm - 528 W/m² -
1777144312 11.67° C 55% 1014.9 hPa 0 mm - 514 W/m² -
1777144009 11.67° C 59% 1014.9 hPa 0 mm - 606 W/m² -
1777143705 11.67° C 57% 1014.9 hPa 0 mm - 560 W/m² -
1777143402 11.67° C 55% 1014.8 hPa 0 mm - 561 W/m² -
1777143097 11.67° C 58% 1015.1 hPa 0 mm - 577 W/m² -
1777142793 11.67° C 57% 1015.1 hPa 0 mm - 581 W/m² -
1777142491 11.67° C 55% 1015 hPa 0 mm - 589 W/m² -
1777142189 11.11° C 59% 1015.2 hPa 0 mm - 586 W/m² -
1777141886 11.67° C 58% 1015 hPa 0 mm - 591 W/m² -
1777141583 11.67° C 57% 1015.3 hPa 0 mm - 597 W/m² -
1777141282 11.67° C 56% 1015.2 hPa 0 mm - 572 W/m² -
1777140979 11.67° C 56% 1015.2 hPa 0 mm - 609 W/m² -
1777140675 11.11° C 57% 1015 hPa 0 mm - 615 W/m² -
1777140372 11.11° C 58% 1015.2 hPa 0 mm - 618 W/m² -
1777140070 11.67° C 55% 1015.3 hPa 0 mm - 617 W/m² -

* Rain latest hour (hover to see other rain measurements)
** Current wind speed in m/s (hover to see current wind gust speed)